Terminal Aerodrome Forecast
Issued by NWS Boston, MA

Home | Current Version | Previous Version | Text Only | Print | Product List | Glossary On
Versions: 1 2 3 4 5 6 7 8 9 10 11 12 13 14 15 16 17 18 19 20 21 22 23 24 25 26 27 28 29 30 31 32 33 34 35 36 37 38
000
FTUS41 KBOX 011723
TAFBDL
TAF
KBDL 011723Z 0118/0224 15006KT P6SM -SHRA OVC045
     FM020100 VRB03KT P6SM -SHRA OVC020
     FM020300 00000KT 4SM -DZ BR OVC010
     FM021100 01004KT P6SM VCSH OVC010
     FM022100 00000KT P6SM OVC010=

USA.gov is the U.S. government's official web portal to all federal, state and local government web resources and services.